Time;durP1;ratioP1;P1;durP2;ratioP2;P2;SDS_P1;SDS_P2;PMS_P1;PMS_P2;Temp;Humidity;BMP_temperature;BMP_pressure;BME280_temperature;BME280_humidity;BME280_pressure;Samples;Min_cycle;Max_cycle;Signal;HPM_P1;HPM_P2
2022/08/18 00:01:42;;;;;;;12.30;9.20;;;;;;;;;;4954083;28;20201;-45
2022/08/18 00:04:09;;;;;;;15.27;10.83;;;;;;;;;;4960200;28;20174;-45
2022/08/18 00:06:35;;;;;;;14.17;10.10;;;;;;;;;;4957929;28;20183;-45
2022/08/18 00:09:07;;;;;;;12.83;9.40;;;;;;;;;;4953658;28;20281;-45
2022/08/18 00:11:35;;;;;;;12.03;8.93;;;;;;;;;;4959253;28;20182;-45
2022/08/18 00:14:01;;;;;;;10.53;7.10;;;;;;;;;;4963060;28;20300;-45
2022/08/18 00:16:27;;;;;;;10.90;6.70;;;;;;;;;;4961412;28;20603;-45
2022/08/18 00:18:53;;;;;;;8.93;7.00;;;;;;;;;;4960981;28;20315;-45
2022/08/18 00:21:19;;;;;;;13.83;6.80;;;;;;;;;;4963283;28;20512;-46
2022/08/18 00:23:45;;;;;;;10.67;6.67;;;;;;;;;;4960671;28;20726;-45
2022/08/18 00:26:12;;;;;;;8.97;6.30;;;;;;;;;;4961554;28;20186;-45
2022/08/18 00:28:38;;;;;;;8.13;7.00;;;;;;;;;;4971028;28;20622;-45
2022/08/18 00:31:04;;;;;;;8.53;6.10;;;;;;;;;;4964223;28;20189;-45
2022/08/18 00:33:30;;;;;;;10.10;6.00;;;;;;;;;;4968078;28;20624;-45
2022/08/18 00:35:56;;;;;;;9.60;6.63;;;;;;;;;;4965848;28;20194;-45
2022/08/18 00:38:22;;;;;;;14.80;6.70;;;;;;;;;;4956362;28;20905;-45
2022/08/18 00:40:50;;;;;;;10.93;6.47;;;;;;;;;;4957555;28;20744;-45
2022/08/18 00:43:26;;;;;;;8.30;6.23;;;;;;;;;;4958163;28;20881;-45
2022/08/18 00:45:53;;;;;;;7.67;5.70;;;;;;;;;;4956170;28;20252;-45
2022/08/18 00:48:19;;;;;;;9.67;6.20;;;;;;;;;;4958067;28;20185;-45
2022/08/18 00:50:48;;;;;;;9.30;6.47;;;;;;;;;;4956671;28;21070;-44
2022/08/18 00:53:34;;;;;;;9.70;6.73;;;;;;;;;;4955169;28;20174;-45
2022/08/18 00:56:03;;;;;;;8.57;6.33;;;;;;;;;;4956554;28;20268;-45
2022/08/18 00:58:31;;;;;;;8.83;6.77;;;;;;;;;;4959390;28;20175;-45
2022/08/18 01:00:59;;;;;;;12.20;6.53;;;;;;;;;;4956601;28;20248;-45
2022/08/18 01:03:25;;;;;;;7.17;5.37;;;;;;;;;;4956613;28;20723;-45
2022/08/18 01:05:54;;;;;;;8.27;5.30;;;;;;;;;;4972710;28;20174;-45
2022/08/18 01:08:20;;;;;;;7.47;5.50;;;;;;;;;;4956433;28;20183;-45
2022/08/18 01:10:46;;;;;;;6.10;4.77;;;;;;;;;;4954305;28;20293;-45
2022/08/18 01:13:13;;;;;;;6.83;5.30;;;;;;;;;;4957982;28;20214;-45
2022/08/18 01:15:39;;;;;;;6.50;4.43;;;;;;;;;;4957757;28;20579;-45
2022/08/18 01:23:42;;;;;;;9.30;6.10;;;;;;;;;;4956667;28;20185;-45
2022/08/18 01:26:08;;;;;;;10.33;5.90;;;;;;;;;;4956519;28;20319;-45
2022/08/18 01:28:39;;;;;;;9.70;6.80;;;;;;;;;;4956606;28;20574;-45
2022/08/18 01:31:05;;;;;;;7.90;5.57;;;;;;;;;;4957317;28;21042;-45
2022/08/18 01:33:33;;;;;;;7.57;4.87;;;;;;;;;;4955299;28;20178;-46
2022/08/18 01:36:06;;;;;;;12.10;6.03;;;;;;;;;;4968431;28;20198;-45
2022/08/18 01:38:32;;;;;;;6.33;5.00;;;;;;;;;;4957983;28;20194;-45
2022/08/18 01:40:59;;;;;;;6.87;4.60;;;;;;;;;;4954078;28;20194;-45
2022/08/18 01:43:25;;;;;;;7.00;5.17;;;;;;;;;;4955414;28;20281;-45
2022/08/18 01:45:51;;;;;;;7.93;5.33;;;;;;;;;;4957456;28;20284;-45
2022/08/18 01:48:17;;;;;;;8.50;4.90;;;;;;;;;;4955248;28;20182;-45
2022/08/18 01:50:44;;;;;;;8.17;5.57;;;;;;;;;;4954837;28;20232;-46
2022/08/18 01:53:11;;;;;;;7.73;5.40;;;;;;;;;;4961152;28;20626;-45
2022/08/18 01:55:38;;;;;;;5.30;4.63;;;;;;;;;;4956881;28;20175;-45
2022/08/18 01:58:06;;;;;;;8.33;5.23;;;;;;;;;;4953673;28;20209;-45
2022/08/18 02:00:33;;;;;;;9.03;5.00;;;;;;;;;;4955499;28;20261;-45
2022/08/18 02:03:00;;;;;;;9.97;7.67;;;;;;;;;;4951559;28;20214;-45
2022/08/18 02:05:37;;;;;;;14.13;10.10;;;;;;;;;;4954299;28;20174;-45
2022/08/18 02:08:04;;;;;;;14.40;10.93;;;;;;;;;;4956060;28;20619;-45
2022/08/18 02:10:30;;;;;;;15.00;10.90;;;;;;;;;;4955205;28;20933;-45
2022/08/18 02:12:56;;;;;;;15.47;10.40;;;;;;;;;;4969502;28;20224;-46
2022/08/18 02:15:22;;;;;;;16.50;11.10;;;;;;;;;;4956430;28;20368;-44
2022/08/18 02:17:49;;;;;;;12.73;9.93;;;;;;;;;;4955089;28;20897;-45
2022/08/18 02:20:16;;;;;;;15.07;11.73;;;;;;;;;;4952296;28;20190;-45
2022/08/18 02:22:43;;;;;;;17.27;13.37;;;;;;;;;;4955897;28;20316;-45
2022/08/18 02:25:10;;;;;;;22.17;15.07;;;;;;;;;;4955221;28;20182;-44
2022/08/18 02:27:36;;;;;;;23.37;18.10;;;;;;;;;;4957386;28;20289;-43
2022/08/18 02:30:04;;;;;;;25.60;20.13;;;;;;;;;;4954345;28;20202;-43
2022/08/18 02:32:32;;;;;;;28.67;22.60;;;;;;;;;;4954706;28;20260;-43
2022/08/18 02:34:58;;;;;;;30.47;21.57;;;;;;;;;;4956500;28;20186;-44
2022/08/18 02:37:24;;;;;;;29.83;19.77;;;;;;;;;;4956159;28;20187;-43
2022/08/18 02:39:50;;;;;;;27.63;19.43;;;;;;;;;;4954869;28;20208;-43
2022/08/18 02:42:16;;;;;;;26.77;18.17;;;;;;;;;;4957015;28;20309;-42
2022/08/18 02:44:42;;;;;;;25.63;17.20;;;;;;;;;;4954845;28;20186;-43
2022/08/18 02:47:09;;;;;;;22.90;17.37;;;;;;;;;;4954358;28;20697;-42
2022/08/18 02:49:37;;;;;;;20.07;15.37;;;;;;;;;;4955998;28;20647;-43
2022/08/18 02:52:04;;;;;;;23.70;14.97;;;;;;;;;;4957790;28;20367;-43
2022/08/18 02:54:31;;;;;;;22.60;15.87;;;;;;;;;;4953598;28;20657;-43
2022/08/18 02:56:57;;;;;;;21.83;15.00;;;;;;;;;;4954729;28;20324;-43
2022/08/18 02:59:26;;;;;;;21.70;14.47;;;;;;;;;;4953300;28;20805;-43
2022/08/18 03:01:53;;;;;;;18.23;13.80;;;;;;;;;;4953230;28;20245;-43
2022/08/18 03:04:21;;;;;;;20.00;13.53;;;;;;;;;;4955160;28;20663;-43
2022/08/18 03:06:48;;;;;;;17.53;12.33;;;;;;;;;;4956627;28;20289;-42
2022/08/18 03:09:15;;;;;;;17.80;12.67;;;;;;;;;;4954430;28;20178;-43
2022/08/18 03:11:42;;;;;;;21.33;14.00;;;;;;;;;;4954967;28;20642;-42
2022/08/18 03:14:08;;;;;;;16.60;13.30;;;;;;;;;;4956436;28;20214;-42
2022/08/18 03:16:35;;;;;;;18.43;13.13;;;;;;;;;;4953341;28;20580;-43
2022/08/18 03:19:01;;;;;;;19.90;13.43;;;;;;;;;;4951712;28;20182;-42
2022/08/18 03:21:29;;;;;;;18.80;12.50;;;;;;;;;;4956476;28;20209;-42
2022/08/18 03:23:55;;;;;;;20.60;14.07;;;;;;;;;;4954853;28;20178;-43
2022/08/18 03:26:22;;;;;;;19.00;12.13;;;;;;;;;;4953925;28;20181;-42
2022/08/18 03:28:50;;;;;;;16.43;12.43;;;;;;;;;;4955764;28;20517;-43
2022/08/18 03:31:17;;;;;;;18.40;14.00;;;;;;;;;;4954072;28;20738;-42
2022/08/18 03:33:44;;;;;;;19.87;12.67;;;;;;;;;;4952817;28;20185;-42
2022/08/18 03:36:12;;;;;;;17.90;12.73;;;;;;;;;;4955926;28;20196;-41
2022/08/18 03:38:42;;;;;;;15.97;12.23;;;;;;;;;;4954484;28;20632;-42
2022/08/18 03:41:08;;;;;;;16.07;12.27;;;;;;;;;;4954441;28;20292;-43
2022/08/18 03:43:35;;;;;;;19.03;13.20;;;;;;;;;;4955072;28;20732;-43
2022/08/18 03:46:02;;;;;;;17.50;12.60;;;;;;;;;;4954032;28;20991;-42
2022/08/18 03:48:28;;;;;;;15.83;12.20;;;;;;;;;;4954896;28;20245;-43
2022/08/18 03:50:54;;;;;;;17.63;12.13;;;;;;;;;;4956374;28;20710;-43
2022/08/18 03:53:20;;;;;;;17.97;11.20;;;;;;;;;;4952373;28;20403;-42
2022/08/18 03:55:47;;;;;;;20.13;12.80;;;;;;;;;;4954059;28;20836;-42
2022/08/18 03:58:13;;;;;;;19.63;13.47;;;;;;;;;;4955816;28;20828;-42
2022/08/18 04:00:40;;;;;;;20.77;13.80;;;;;;;;;;4958814;28;20178;-42
2022/08/18 04:03:06;;;;;;;18.00;12.83;;;;;;;;;;4957317;28;20317;-43
2022/08/18 04:05:35;;;;;;;22.63;13.60;;;;;;;;;;4958463;28;20209;-42
2022/08/18 04:08:03;;;;;;;27.20;13.50;;;;;;;;;;4959739;28;20185;-43
2022/08/18 04:10:29;;;;;;;28.13;15.60;;;;;;;;;;4957987;28;20233;-42
2022/08/18 04:12:55;;;;;;;21.37;14.23;;;;;;;;;;4957424;28;20670;-42
2022/08/18 04:15:22;;;;;;;31.70;14.60;;;;;;;;;;4959089;28;21001;-43
2022/08/18 04:17:48;;;;;;;20.40;14.63;;;;;;;;;;4957612;28;20178;-43
2022/08/18 04:20:15;;;;;;;20.97;15.27;;;;;;;;;;4957838;28;20446;-43
2022/08/18 04:22:43;;;;;;;24.07;16.37;;;;;;;;;;4959486;28;20403;-43
2022/08/18 04:25:09;;;;;;;28.33;17.70;;;;;;;;;;4957779;28;20174;-43
2022/08/18 04:27:38;;;;;;;30.83;19.40;;;;;;;;;;4956203;28;20588;-43
2022/08/18 04:30:04;;;;;;;28.93;20.23;;;;;;;;;;4962522;28;20194;-43
2022/08/18 04:32:31;;;;;;;30.67;20.70;;;;;;;;;;4958471;28;20182;-43
2022/08/18 04:34:57;;;;;;;30.13;20.77;;;;;;;;;;4958184;28;20193;-43
2022/08/18 04:37:23;;;;;;;30.97;20.63;;;;;;;;;;4961949;28;20232;-43
2022/08/18 04:39:49;;;;;;;35.60;22.83;;;;;;;;;;4955427;28;20673;-43
2022/08/18 04:42:16;;;;;;;33.30;23.80;;;;;;;;;;4959105;28;20202;-43
2022/08/18 04:44:42;;;;;;;29.87;21.77;;;;;;;;;;4961644;28;20171;-41
2022/08/18 04:47:09;;;;;;;29.53;22.50;;;;;;;;;;4958021;28;21022;-43
2022/08/18 04:49:36;;;;;;;32.00;23.70;;;;;;;;;;4960769;28;20544;-43
2022/08/18 04:54:49;;;;;;;26.63;22.17;;;;;;;;;;4958723;28;20398;-43
2022/08/18 04:57:16;;;;;;;30.47;21.50;;;;;;;;;;4959241;28;20181;-44
2022/08/18 04:59:43;;;;;;;30.60;24.00;;;;;;;;;;4959450;28;20888;-43
2022/08/18 05:02:09;;;;;;;32.93;24.13;;;;;;;;;;4958549;28;20353;-43
2022/08/18 05:04:36;;;;;;;29.43;22.83;;;;;;;;;;4956747;28;20194;-43
2022/08/18 05:07:04;;;;;;;31.90;23.27;;;;;;;;;;4958926;28;20202;-43
2022/08/18 05:09:30;;;;;;;34.67;23.70;;;;;;;;;;4959776;28;20252;-44
2022/08/18 05:11:57;;;;;;;31.17;23.63;;;;;;;;;;4955785;28;20178;-44
2022/08/18 05:14:23;;;;;;;30.33;23.77;;;;;;;;;;4956395;28;21036;-43
2022/08/18 05:16:50;;;;;;;29.97;24.13;;;;;;;;;;4964647;28;20850;-44
2022/08/18 05:19:21;;;;;;;28.63;22.10;;;;;;;;;;4962975;28;20599;-44
2022/08/18 05:21:47;;;;;;;27.83;21.50;;;;;;;;;;4963796;28;20280;-44
2022/08/18 05:24:13;;;;;;;28.80;21.13;;;;;;;;;;4960768;28;20598;-43
2022/08/18 05:26:40;;;;;;;28.50;21.23;;;;;;;;;;4961403;28;20301;-44
2022/08/18 05:29:06;;;;;;;24.87;21.50;;;;;;;;;;4962292;28;20565;-44
2022/08/18 05:31:33;;;;;;;27.43;21.80;;;;;;;;;;4955210;28;20573;-44
2022/08/18 05:34:02;;;;;;;31.80;22.90;;;;;;;;;;4953818;28;20401;-43
2022/08/18 05:36:38;;;;;;;25.93;20.70;;;;;;;;;;4957266;28;20559;-44
2022/08/18 05:39:15;;;;;;;30.53;19.60;;;;;;;;;;4957122;28;20204;-44
2022/08/18 05:41:42;;;;;;;28.10;19.47;;;;;;;;;;4955426;28;20324;-44
2022/08/18 05:44:12;;;;;;;28.90;20.90;;;;;;;;;;4957415;28;20181;-44
2022/08/18 05:46:38;;;;;;;24.03;19.73;;;;;;;;;;4954910;28;20281;-44
2022/08/18 05:49:04;;;;;;;29.53;21.53;;;;;;;;;;4955297;28;20867;-44
2022/08/18 05:51:50;;;;;;;23.37;19.60;;;;;;;;;;4955501;28;20178;-44
2022/08/18 05:57:13;;;;;;;27.60;19.77;;;;;;;;;;4951409;28;20245;-43
2022/08/18 05:59:41;;;;;;;29.30;20.37;;;;;;;;;;4952797;28;20186;-44
2022/08/18 06:02:07;;;;;;;25.13;19.67;;;;;;;;;;4953242;28;20201;-44
2022/08/18 06:04:39;;;;;;;26.87;21.10;;;;;;;;;;4955702;28;20177;-44
2022/08/18 06:07:07;;;;;;;27.70;20.47;;;;;;;;;;4950702;28;20289;-43
2022/08/18 06:09:33;;;;;;;26.37;19.50;;;;;;;;;;4952342;28;20559;-44
2022/08/18 06:12:29;;;;;;;28.03;21.53;;;;;;;;;;4954283;28;20219;-43
2022/08/18 06:15:00;;;;;;;29.40;20.97;;;;;;;;;;4943469;28;20218;-43
2022/08/18 06:17:26;;;;;;;25.37;20.40;;;;;;;;;;4951517;28;20663;-43
2022/08/18 06:20:00;;;;;;;27.13;19.67;;;;;;;;;;4952853;28;20209;-43
2022/08/18 06:22:39;;;;;;;23.63;19.37;;;;;;;;;;4946816;28;20411;-43
2022/08/18 06:25:20;;;;;;;29.60;21.50;;;;;;;;;;4951067;28;20185;-43
2022/08/18 06:27:54;;;;;;;36.77;22.90;;;;;;;;;;4953053;28;20796;-42
2022/08/18 06:30:32;;;;;;;34.33;24.03;;;;;;;;;;4949208;28;20511;-40
2022/08/18 06:33:05;;;;;;;33.13;22.80;;;;;;;;;;4954203;28;20917;-38
2022/08/18 06:35:51;;;;;;;31.00;22.77;;;;;;;;;;4952504;28;20226;-39
2022/08/18 06:41:08;;;;;;;32.07;22.13;;;;;;;;;;4953954;28;22223;-41
2022/08/18 06:43:35;;;;;;;36.57;21.53;;;;;;;;;;4953318;28;20962;-42
2022/08/18 06:46:02;;;;;;;30.67;21.73;;;;;;;;;;4952505;28;20620;-40
2022/08/18 06:48:31;;;;;;;30.50;20.07;;;;;;;;;;4949173;28;20193;-38
2022/08/18 06:51:02;;;;;;;36.53;24.43;;;;;;;;;;4954548;28;20595;-39
2022/08/18 06:53:50;;;;;;;36.23;25.43;;;;;;;;;;4951190;28;20170;-42
2022/08/18 06:56:20;;;;;;;36.63;25.73;;;;;;;;;;4951045;28;20178;-41
2022/08/18 06:58:46;;;;;;;39.60;26.43;;;;;;;;;;4953200;28;20173;-39
2022/08/18 07:01:12;;;;;;;33.87;24.53;;;;;;;;;;4949836;28;20192;-42
2022/08/18 07:03:38;;;;;;;34.13;23.17;;;;;;;;;;4950347;28;20728;-40
2022/08/18 07:06:04;;;;;;;28.70;21.70;;;;;;;;;;4953035;28;20170;-41
2022/08/18 07:08:30;;;;;;;36.50;24.83;;;;;;;;;;4950702;28;20178;-40
2022/08/18 07:11:10;;;;;;;26.17;21.77;;;;;;;;;;4951412;28;20185;-42
2022/08/18 07:13:39;;;;;;;34.93;24.20;;;;;;;;;;4950916;28;20189;-41
2022/08/18 07:16:17;;;;;;;33.13;25.13;;;;;;;;;;4950888;28;20167;-41
2022/08/18 07:18:43;;;;;;;33.23;23.20;;;;;;;;;;4948078;28;20174;-40
2022/08/18 07:21:23;;;;;;;36.43;25.47;;;;;;;;;;4951813;28;20306;-41
2022/08/18 07:23:57;;;;;;;29.13;22.97;;;;;;;;;;4949524;28;21041;-42
2022/08/18 07:26:23;;;;;;;31.87;24.33;;;;;;;;;;4947540;28;20613;-40
2022/08/18 07:28:50;;;;;;;39.93;27.10;;;;;;;;;;4952798;28;20256;-40
2022/08/18 07:31:19;;;;;;;36.93;26.00;;;;;;;;;;4951409;28;20178;-42
2022/08/18 07:33:50;;;;;;;31.00;24.67;;;;;;;;;;4949221;28;20359;-42
2022/08/18 07:36:16;;;;;;;27.93;21.40;;;;;;;;;;4953630;28;20542;-43
2022/08/18 07:38:48;;;;;;;29.53;20.20;;;;;;;;;;4950887;28;20401;-42
2022/08/18 07:41:26;;;;;;;28.00;19.53;;;;;;;;;;4950284;28;20185;-43
2022/08/18 07:44:03;;;;;;;25.87;18.80;;;;;;;;;;4955120;28;20182;-41
2022/08/18 07:46:45;;;;;;;26.13;19.73;;;;;;;;;;4950958;28;20170;-41
2022/08/18 07:49:16;;;;;;;23.77;19.27;;;;;;;;;;4950097;28;20166;-42
2022/08/18 07:51:45;;;;;;;21.13;18.87;;;;;;;;;;4952708;28;20190;-43
2022/08/18 07:54:21;;;;;;;19.17;15.63;;;;;;;;;;4951630;28;20701;-43
2022/08/18 07:57:06;;;;;;;19.03;16.50;;;;;;;;;;4947890;28;20462;-43
2022/08/18 07:59:47;;;;;;;23.03;17.97;;;;;;;;;;4952138;28;20560;-43
2022/08/18 08:02:32;;;;;;;24.07;16.97;;;;;;;;;;4951552;28;20401;-44
2022/08/18 08:05:01;;;;;;;17.97;14.73;;;;;;;;;;4951602;28;20174;-44
2022/08/18 08:07:34;;;;;;;18.30;14.90;;;;;;;;;;4948268;28;20190;-42
2022/08/18 08:10:17;;;;;;;21.60;17.43;;;;;;;;;;4954614;28;20523;-43
2022/08/18 08:12:47;;;;;;;24.93;16.97;;;;;;;;;;4952160;28;20178;-44
2022/08/18 08:15:20;;;;;;;25.77;19.77;;;;;;;;;;4951195;28;20170;-42
2022/08/18 08:17:46;;;;;;;20.80;17.00;;;;;;;;;;4949679;28;20170;-42
2022/08/18 08:20:15;;;;;;;30.70;20.33;;;;;;;;;;4950281;28;20182;-40
2022/08/18 08:22:57;;;;;;;26.27;19.83;;;;;;;;;;4948775;28;20304;-42
2022/08/18 08:25:35;;;;;;;25.30;19.20;;;;;;;;;;4954886;28;20463;-40
2022/08/18 08:28:17;;;;;;;26.27;20.03;;;;;;;;;;4951327;28;20688;-42
2022/08/18 08:30:51;;;;;;;28.40;20.43;;;;;;;;;;4951111;28;20181;-43
2022/08/18 08:33:24;;;;;;;26.27;19.87;;;;;;;;;;4953618;28;20176;-41
2022/08/18 08:35:55;;;;;;;23.03;19.13;;;;;;;;;;4951077;28;20832;-42
2022/08/18 08:38:34;;;;;;;25.03;19.20;;;;;;;;;;4949649;28;20182;-43
2022/08/18 08:41:02;;;;;;;22.27;18.10;;;;;;;;;;4953060;28;20192;-43
2022/08/18 08:43:41;;;;;;;22.73;18.07;;;;;;;;;;4947110;28;20186;-43
2022/08/18 08:46:13;;;;;;;22.20;19.27;;;;;;;;;;4948922;28;20643;-41
2022/08/18 08:48:41;;;;;;;26.63;18.87;;;;;;;;;;4956498;28;20366;-42
2022/08/18 08:51:26;;;;;;;23.37;18.53;;;;;;;;;;4952444;28;20495;-42
2022/08/18 08:53:57;;;;;;;22.73;18.80;;;;;;;;;;4955396;28;20888;-41
2022/08/18 08:56:25;;;;;;;26.93;20.43;;;;;;;;;;4954082;28;21130;-38
2022/08/18 08:58:57;;;;;;;26.83;19.93;;;;;;;;;;4951308;28;20416;-41
2022/08/18 09:01:42;;;;;;;23.37;19.20;;;;;;;;;;4953488;28;20885;-40
2022/08/18 09:04:14;;;;;;;26.67;20.37;;;;;;;;;;4955093;28;20178;-40
2022/08/18 09:06:40;;;;;;;29.10;20.60;;;;;;;;;;4953459;28;20201;-41
2022/08/18 09:09:18;;;;;;;37.77;27.03;;;;;;;;;;4956559;28;20189;-42
2022/08/18 09:11:54;;;;;;;32.07;25.47;;;;;;;;;;4953821;28;20704;-41
2022/08/18 09:14:21;;;;;;;24.43;21.83;;;;;;;;;;4952097;28;20273;-41
2022/08/18 09:17:08;;;;;;;28.40;23.07;;;;;;;;;;4955566;28;20657;-41
2022/08/18 09:19:34;;;;;;;28.33;22.87;;;;;;;;;;4954066;28;20464;-41
2022/08/18 09:22:15;;;;;;;27.77;23.13;;;;;;;;;;4951116;28;20206;-41
2022/08/18 09:24:49;;;;;;;31.87;21.80;;;;;;;;;;4954959;28;20871;-41
2022/08/18 09:27:15;;;;;;;31.23;22.67;;;;;;;;;;4954138;28;20276;-39
2022/08/18 09:29:45;;;;;;;36.47;27.13;;;;;;;;;;4950287;28;20662;-42
2022/08/18 09:32:21;;;;;;;38.43;27.40;;;;;;;;;;4954504;28;20213;-43
2022/08/18 09:34:55;;;;;;;20.13;8.87;;;;;;;;;;4957212;28;20352;-43
2022/08/18 09:37:28;;;;;;;13.83;6.57;;;;;;;;;;4953964;28;20190;-42
2022/08/18 09:42:54;;;;;;;10.60;5.63;;;;;;;;;;4951986;28;20213;-42
2022/08/18 09:45:29;;;;;;;9.73;5.20;;;;;;;;;;4954826;28;20997;-43
2022/08/18 09:47:57;;;;;;;7.53;4.57;;;;;;;;;;4950113;28;20287;-40
2022/08/18 09:50:27;;;;;;;4.70;2.90;;;;;;;;;;4947277;28;20485;-41
2022/08/18 09:52:55;;;;;;;6.30;4.07;;;;;;;;;;4951509;28;20626;-41
2022/08/18 09:55:24;;;;;;;9.03;4.73;;;;;;;;;;4953283;28;20183;-41
2022/08/18 09:58:09;;;;;;;7.20;4.30;;;;;;;;;;4950555;28;20580;-43
2022/08/18 10:00:35;;;;;;;4.23;3.53;;;;;;;;;;4955045;28;20493;-42
2022/08/18 10:03:04;;;;;;;4.33;3.13;;;;;;;;;;4950962;28;20316;-43
2022/08/18 10:05:31;;;;;;;6.23;3.83;;;;;;;;;;4951243;28;20449;-43
2022/08/18 10:08:04;;;;;;;6.23;4.00;;;;;;;;;;4953685;28;20333;-42
2022/08/18 10:10:48;;;;;;;5.60;3.57;;;;;;;;;;4951089;28;20277;-43
2022/08/18 10:13:17;;;;;;;5.63;3.00;;;;;;;;;;4948535;28;20182;-43
2022/08/18 10:15:46;;;;;;;4.60;3.03;;;;;;;;;;4953902;28;20309;-42
2022/08/18 10:18:26;;;;;;;5.73;3.07;;;;;;;;;;4949044;28;20182;-43
2022/08/18 10:21:26;;;;;;;4.70;3.73;;;;;;;;;;4952595;28;20170;-41
2022/08/18 10:23:52;;;;;;;6.40;3.90;;;;;;;;;;4914228;28;20538;-41
2022/08/18 10:26:30;;;;;;;7.03;4.93;;;;;;;;;;4952886;28;20866;-41
2022/08/18 10:28:56;;;;;;;4.37;3.40;;;;;;;;;;4956198;28;20186;-41
2022/08/18 10:31:22;;;;;;;5.90;2.70;;;;;;;;;;4954981;28;20751;-43
2022/08/18 10:34:09;;;;;;;10.07;3.10;;;;;;;;;;4952292;28;20689;-43
2022/08/18 10:37:10;;;;;;;4.77;2.80;;;;;;;;;;4952178;28;20707;-43
2022/08/18 10:39:39;;;;;;;6.67;2.20;;;;;;;;;;4925238;28;20373;-43
2022/08/18 10:42:05;;;;;;;6.27;2.40;;;;;;;;;;4943255;28;20270;-43
2022/08/18 10:44:36;;;;;;;5.30;2.50;;;;;;;;;;4952769;28;20268;-43
2022/08/18 10:47:03;;;;;;;9.83;3.20;;;;;;;;;;4952172;28;20182;-43
2022/08/18 10:49:31;;;;;;;9.13;4.20;;;;;;;;;;4945163;28;20255;-43
2022/08/18 10:52:13;;;;;;;6.83;4.07;;;;;;;;;;4947890;28;20186;-44
2022/08/18 10:54:42;;;;;;;6.50;4.10;;;;;;;;;;4951517;28;20650;-44
2022/08/18 10:57:16;;;;;;;6.03;3.97;;;;;;;;;;4948355;28;20559;-43
2022/08/18 10:59:54;;;;;;;7.77;4.73;;;;;;;;;;4951801;28;20377;-44
2022/08/18 11:02:26;;;;;;;7.50;4.40;;;;;;;;;;4951738;28;20206;-44
2022/08/18 11:04:53;;;;;;;8.13;5.07;;;;;;;;;;4952341;28;20178;-43
2022/08/18 11:07:20;;;;;;;10.83;6.70;;;;;;;;;;4952423;28;20286;-43
2022/08/18 11:09:50;;;;;;;9.97;6.03;;;;;;;;;;4948018;28;20313;-44
2022/08/18 11:12:36;;;;;;;9.00;5.57;;;;;;;;;;4949606;28;20174;-45
2022/08/18 11:15:09;;;;;;;8.77;6.23;;;;;;;;;;4954303;28;20206;-44
2022/08/18 11:17:50;;;;;;;7.83;6.00;;;;;;;;;;4951894;28;20181;-45
2022/08/18 11:20:17;;;;;;;7.77;6.33;;;;;;;;;;4952735;28;20198;-45
2022/08/18 11:22:53;;;;;;;9.03;6.17;;;;;;;;;;4953784;28;20197;-45
2022/08/18 11:25:30;;;;;;;6.50;5.73;;;;;;;;;;4951571;28;20170;-46
2022/08/18 11:27:57;;;;;;;6.47;5.40;;;;;;;;;;4955155;28;20169;-46
2022/08/18 11:30:25;;;;;;;7.57;6.20;;;;;;;;;;4952196;28;20178;-45
2022/08/18 11:32:52;;;;;;;8.57;6.60;;;;;;;;;;4948596;28;20873;-46
2022/08/18 11:35:19;;;;;;;9.80;7.00;;;;;;;;;;4955973;28;20212;-46
2022/08/18 11:37:50;;;;;;;8.80;7.30;;;;;;;;;;4950094;28;20852;-46
2022/08/18 11:40:28;;;;;;;7.60;6.03;;;;;;;;;;4955031;28;20714;-46
2022/08/18 11:42:57;;;;;;;9.93;7.17;;;;;;;;;;4951284;28;20247;-46
2022/08/18 11:45:25;;;;;;;9.10;7.47;;;;;;;;;;4950506;28;20234;-46
2022/08/18 11:48:10;;;;;;;7.40;6.27;;;;;;;;;;4948825;28;20328;-46
2022/08/18 11:50:45;;;;;;;8.07;6.40;;;;;;;;;;4953854;28;20256;-46
2022/08/18 11:53:21;;;;;;;8.17;6.37;;;;;;;;;;4950467;28;20201;-46
2022/08/18 11:56:02;;;;;;;8.37;4.70;;;;;;;;;;4951228;28;21216;-46
2022/08/18 11:58:47;;;;;;;8.30;4.77;;;;;;;;;;4953959;28;20170;-46
2022/08/18 12:01:31;;;;;;;4.77;3.70;;;;;;;;;;4951519;28;20907;-46
2022/08/18 12:03:58;;;;;;;4.80;3.83;;;;;;;;;;4951003;28;20560;-46
2022/08/18 12:06:26;;;;;;;6.30;4.23;;;;;;;;;;4954168;28;20202;-47
2022/08/18 12:09:13;;;;;;;4.93;3.93;;;;;;;;;;4951817;28;20320;-46
2022/08/18 12:11:48;;;;;;;3.90;3.17;;;;;;;;;;4952318;28;20185;-46
2022/08/18 12:14:20;;;;;;;7.43;3.23;;;;;;;;;;4950005;28;20411;-46
2022/08/18 12:16:46;;;;;;;3.97;3.10;;;;;;;;;;4949251;28;21043;-46
2022/08/18 12:19:13;;;;;;;3.83;2.60;;;;;;;;;;4951635;28;20265;-46
2022/08/18 12:21:41;;;;;;;4.07;2.20;;;;;;;;;;4958197;28;20225;-46
2022/08/18 12:24:11;;;;;;;5.43;2.60;;;;;;;;;;4953623;28;20201;-46
2022/08/18 12:26:37;;;;;;;2.73;2.20;;;;;;;;;;4957077;28;20178;-46
2022/08/18 12:29:03;;;;;;;3.53;2.10;;;;;;;;;;4956003;28;20751;-46
2022/08/18 12:31:29;;;;;;;1.77;1.30;;;;;;;;;;4953072;28;20717;-46
2022/08/18 12:33:55;;;;;;;3.10;1.63;;;;;;;;;;4955075;28;20166;-46
2022/08/18 12:36:22;;;;;;;2.70;1.40;;;;;;;;;;4952712;28;20182;-46
2022/08/18 12:38:48;;;;;;;4.70;1.73;;;;;;;;;;4951056;28;20190;-46
2022/08/18 12:41:14;;;;;;;3.23;1.90;;;;;;;;;;4956392;28;20905;-46
2022/08/18 12:43:40;;;;;;;2.40;1.50;;;;;;;;;;4952674;28;20509;-46
2022/08/18 12:46:06;;;;;;;3.27;1.50;;;;;;;;;;4957089;28;20686;-46
2022/08/18 12:48:33;;;;;;;2.07;1.00;;;;;;;;;;4952666;28;20170;-46
2022/08/18 12:50:59;;;;;;;1.00;0.60;;;;;;;;;;4954735;28;20174;-46
2022/08/18 12:53:25;;;;;;;0.33;0.33;;;;;;;;;;4952665;28;22374;-46
2022/08/18 12:55:51;;;;;;;0.83;0.40;;;;;;;;;;4950425;28;20201;-46
2022/08/18 12:58:17;;;;;;;0.33;0.30;;;;;;;;;;4950642;28;20535;-46
2022/08/18 13:00:44;;;;;;;1.60;0.43;;;;;;;;;;4955001;28;20178;-46
2022/08/18 13:03:10;;;;;;;0.90;0.60;;;;;;;;;;4952795;28;20318;-46
2022/08/18 13:05:36;;;;;;;1.80;0.50;;;;;;;;;;4950267;28;20374;-46
2022/08/18 13:08:03;;;;;;;1.10;0.40;;;;;;;;;;4956459;28;20175;-46
2022/08/18 13:10:29;;;;;;;0.77;0.50;;;;;;;;;;4956625;28;20174;-46
2022/08/18 13:12:55;;;;;;;0.57;0.40;;;;;;;;;;4954064;28;21632;-46
2022/08/18 13:15:23;;;;;;;2.40;0.50;;;;;;;;;;4950934;28;20178;-46
2022/08/18 13:17:49;;;;;;;1.37;0.50;;;;;;;;;;4954451;28;20178;-46
2022/08/18 13:20:16;;;;;;;0.80;0.50;;;;;;;;;;4953907;28;20641;-46
2022/08/18 13:22:42;;;;;;;0.50;0.50;;;;;;;;;;4952740;28;20317;-46
2022/08/18 13:25:13;;;;;;;1.87;0.70;;;;;;;;;;4954843;28;20619;-46
2022/08/18 13:27:39;;;;;;;0.77;0.50;;;;;;;;;;4955048;28;20174;-46
2022/08/18 13:30:14;;;;;;;2.10;0.70;;;;;;;;;;4951594;28;20577;-46
2022/08/18 13:32:40;;;;;;;1.00;0.60;;;;;;;;;;4954387;28;21159;-46
2022/08/18 13:35:07;;;;;;;1.43;0.60;;;;;;;;;;4955035;28;21086;-46
2022/08/18 13:37:34;;;;;;;1.23;0.80;;;;;;;;;;4952324;28;20405;-46
2022/08/18 13:40:01;;;;;;;2.57;0.80;;;;;;;;;;4953370;28;20773;-46
2022/08/18 13:42:28;;;;;;;1.43;0.70;;;;;;;;;;4957874;28;20245;-46
2022/08/18 13:44:55;;;;;;;0.57;0.50;;;;;;;;;;4966061;28;20248;-46
2022/08/18 13:47:21;;;;;;;1.90;0.70;;;;;;;;;;4950770;28;20986;-46
2022/08/18 13:49:47;;;;;;;2.03;0.60;;;;;;;;;;4953473;28;20462;-46
2022/08/18 13:52:13;;;;;;;2.83;0.73;;;;;;;;;;4951314;28;20311;-46
2022/08/18 13:54:41;;;;;;;1.97;0.50;;;;;;;;;;4952466;28;20175;-46
2022/08/18 13:57:07;;;;;;;1.90;0.60;;;;;;;;;;4954297;28;20284;-46
2022/08/18 13:59:33;;;;;;;1.13;0.50;;;;;;;;;;4954411;28;20705;-46
2022/08/18 14:02:05;;;;;;;1.20;0.63;;;;;;;;;;4950436;28;21010;-46
2022/08/18 14:04:31;;;;;;;1.13;0.80;;;;;;;;;;4951780;28;20162;-45
2022/08/18 14:06:59;;;;;;;1.53;1.10;;;;;;;;;;4954698;28;20691;-46
2022/08/18 14:09:26;;;;;;;1.27;0.83;;;;;;;;;;4951550;28;20291;-46
2022/08/18 14:11:52;;;;;;;2.70;1.10;;;;;;;;;;4954960;28;20402;-46
2022/08/18 14:14:19;;;;;;;2.23;0.90;;;;;;;;;;4953219;28;20365;-46
2022/08/18 14:16:45;;;;;;;2.17;1.00;;;;;;;;;;4951723;28;20190;-46
2022/08/18 14:27:29;;;;;;;1.73;1.10;;;;;;;;;;4954756;28;20220;-46
2022/08/18 14:29:56;;;;;;;1.50;1.13;;;;;;;;;;4954054;28;20464;-46
2022/08/18 14:32:23;;;;;;;1.67;1.17;;;;;;;;;;4952767;28;20170;-46
2022/08/18 14:34:49;;;;;;;1.10;0.80;;;;;;;;;;4952911;28;20182;-46
2022/08/18 14:37:15;;;;;;;1.83;1.00;;;;;;;;;;4955095;28;20197;-46
2022/08/18 14:39:41;;;;;;;1.53;1.00;;;;;;;;;;4952026;28;20421;-46
2022/08/18 14:42:07;;;;;;;2.53;1.07;;;;;;;;;;4951480;28;20440;-46
2022/08/18 14:44:33;;;;;;;0.90;0.90;;;;;;;;;;4953024;28;20324;-46
2022/08/18 14:47:00;;;;;;;2.20;1.10;;;;;;;;;;4951690;28;20317;-46
2022/08/18 14:49:30;;;;;;;1.40;1.00;;;;;;;;;;4953322;28;20483;-46
2022/08/18 14:51:59;;;;;;;0.80;0.77;;;;;;;;;;4953967;28;20784;-46
2022/08/18 14:54:25;;;;;;;1.63;1.10;;;;;;;;;;4951061;28;20260;-46
2022/08/18 14:56:51;;;;;;;1.60;1.30;;;;;;;;;;4951355;28;20928;-46
2022/08/18 14:59:17;;;;;;;1.10;1.00;;;;;;;;;;4953658;28;20178;-46
2022/08/18 15:01:43;;;;;;;1.47;1.10;;;;;;;;;;4953951;28;20206;-46
2022/08/18 15:04:11;;;;;;;1.03;1.00;;;;;;;;;;4952211;28;20630;-46
2022/08/18 15:06:39;;;;;;;1.17;1.03;;;;;;;;;;4953837;28;20181;-47
2022/08/18 15:09:05;;;;;;;1.20;1.00;;;;;;;;;;4954589;28;20301;-46